Terminal Aerodrome Forecast
Issued by NWS

Home | Current Version | Previous Version | Text Only | Print | Product List | Glossary On
Versions: 1 2 3 4 5 6 7 8 9 10 11 12 13 14 15
000
FTUS45 KRIW 281100
TAFRKS
TAF
KRKS 281128Z 2812/2912 VRB05KT P6SM VCFG SCT015
      TEMPO 2812/2815 BKN015
     FM281600 VRB05KT P6SM FEW015
     FM281900 VRB05KT P6SM SKC
     FM290200 18005KT P6SM SKC=

USA.gov is the U.S. government's official web portal to all federal, state and local government web resources and services.